sensor_id;sensor_type;location;lat;lon;timestamp;temperature;humidity
66013;DHT22;52783;50.502;8.190;2023-11-21T00:00:00;8.10;99.90
66013;DHT22;52783;50.502;8.190;2023-11-21T00:02:26;8.10;99.90
66013;DHT22;52783;50.502;8.190;2023-11-21T00:04:52;8.10;99.90
66013;DHT22;52783;50.502;8.190;2023-11-21T00:07:18;8.10;99.90
66013;DHT22;52783;50.502;8.190;2023-11-21T00:09:43;8.10;99.90
66013;DHT22;52783;50.502;8.190;2023-11-21T00:12:09;8.10;99.90
66013;DHT22;52783;50.502;8.190;2023-11-21T00:14:36;8.10;99.90
66013;DHT22;52783;50.502;8.190;2023-11-21T00:17:02;8.20;99.90
66013;DHT22;52783;50.502;8.190;2023-11-21T00:19:28;8.20;99.90
66013;DHT22;52783;50.502;8.190;2023-11-21T00:21:53;8.10;99.90
66013;DHT22;52783;50.502;8.190;2023-11-21T00:24:19;8.20;99.90
66013;DHT22;52783;50.502;8.190;2023-11-21T00:26:44;8.20;99.90
66013;DHT22;52783;50.502;8.190;2023-11-21T00:29:10;8.10;99.90
66013;DHT22;52783;50.502;8.190;2023-11-21T00:31:36;8.10;99.90
66013;DHT22;52783;50.502;8.190;2023-11-21T00:34:04;8.20;99.90
66013;DHT22;52783;50.502;8.190;2023-11-21T00:36:33;8.20;99.90
66013;DHT22;52783;50.502;8.190;2023-11-21T00:38:58;8.20;99.90
66013;DHT22;52783;50.502;8.190;2023-11-21T00:41:25;8.20;99.90
66013;DHT22;52783;50.502;8.190;2023-11-21T00:43:53;8.20;99.90
66013;DHT22;52783;50.502;8.190;2023-11-21T00:46:19;8.30;99.90
66013;DHT22;52783;50.502;8.190;2023-11-21T00:48:44;8.20;99.90
66013;DHT22;52783;50.502;8.190;2023-11-21T00:51:10;8.20;99.90
66013;DHT22;52783;50.502;8.190;2023-11-21T00:53:35;8.10;99.90
66013;DHT22;52783;50.502;8.190;2023-11-21T00:56:01;8.20;99.90
66013;DHT22;52783;50.502;8.190;2023-11-21T00:58:28;8.20;99.90
66013;DHT22;52783;50.502;8.190;2023-11-21T01:00:53;8.20;99.90
66013;DHT22;52783;50.502;8.190;2023-11-21T01:03:19;8.20;99.90
66013;DHT22;52783;50.502;8.190;2023-11-21T01:05:45;8.20;99.90
66013;DHT22;52783;50.502;8.190;2023-11-21T01:08:11;8.20;99.90
66013;DHT22;52783;50.502;8.190;2023-11-21T01:10:36;8.20;99.90
66013;DHT22;52783;50.502;8.190;2023-11-21T01:13:03;8.20;99.90
66013;DHT22;52783;50.502;8.190;2023-11-21T01:15:30;8.20;99.90
66013;DHT22;52783;50.502;8.190;2023-11-21T01:17:56;8.20;99.90
66013;DHT22;52783;50.502;8.190;2023-11-21T01:20:21;8.30;99.90
66013;DHT22;52783;50.502;8.190;2023-11-21T01:22:47;8.20;99.90
66013;DHT22;52783;50.502;8.190;2023-11-21T01:25:14;8.20;99.90
66013;DHT22;52783;50.502;8.190;2023-11-21T01:27:41;8.20;99.90
66013;DHT22;52783;50.502;8.190;2023-11-21T01:30:07;8.30;99.90
66013;DHT22;52783;50.502;8.190;2023-11-21T01:32:34;8.20;99.90
66013;DHT22;52783;50.502;8.190;2023-11-21T01:35:00;8.20;99.90
66013;DHT22;52783;50.502;8.190;2023-11-21T01:37:25;8.10;99.90
66013;DHT22;52783;50.502;8.190;2023-11-21T01:39:53;8.20;99.90
66013;DHT22;52783;50.502;8.190;2023-11-21T01:42:20;8.10;99.90
66013;DHT22;52783;50.502;8.190;2023-11-21T01:44:46;8.10;99.90
66013;DHT22;52783;50.502;8.190;2023-11-21T01:47:13;8.10;99.90
66013;DHT22;52783;50.502;8.190;2023-11-21T01:49:39;8.20;99.90
66013;DHT22;52783;50.502;8.190;2023-11-21T01:52:05;8.20;99.90
66013;DHT22;52783;50.502;8.190;2023-11-21T01:54:32;8.20;99.90
66013;DHT22;52783;50.502;8.190;2023-11-21T01:56:59;8.20;99.90
66013;DHT22;52783;50.502;8.190;2023-11-21T01:59:37;8.20;99.90
66013;DHT22;52783;50.502;8.190;2023-11-21T02:02:04;8.30;99.90
66013;DHT22;52783;50.502;8.190;2023-11-21T02:04:32;8.30;99.90
66013;DHT22;52783;50.502;8.190;2023-11-21T02:06:58;8.30;99.90
66013;DHT22;52783;50.502;8.190;2023-11-21T02:09:27;8.30;99.90
66013;DHT22;52783;50.502;8.190;2023-11-21T02:11:56;8.20;99.90
66013;DHT22;52783;50.502;8.190;2023-11-21T02:14:21;8.10;99.90
66013;DHT22;52783;50.502;8.190;2023-11-21T02:16:49;8.20;99.90
66013;DHT22;52783;50.502;8.190;2023-11-21T02:19:17;8.10;99.90
66013;DHT22;52783;50.502;8.190;2023-11-21T02:21:45;8.20;99.90
66013;DHT22;52783;50.502;8.190;2023-11-21T02:24:11;8.10;99.90
66013;DHT22;52783;50.502;8.190;2023-11-21T02:26:37;8.20;99.90
66013;DHT22;52783;50.502;8.190;2023-11-21T02:29:02;8.20;99.90
66013;DHT22;52783;50.502;8.190;2023-11-21T02:31:30;8.20;99.90
66013;DHT22;52783;50.502;8.190;2023-11-21T02:33:55;8.20;99.90
66013;DHT22;52783;50.502;8.190;2023-11-21T02:36:21;8.10;99.90
66013;DHT22;52783;50.502;8.190;2023-11-21T02:38:47;8.00;99.90
66013;DHT22;52783;50.502;8.190;2023-11-21T02:41:12;8.00;99.90
66013;DHT22;52783;50.502;8.190;2023-11-21T02:43:38;8.00;99.90
66013;DHT22;52783;50.502;8.190;2023-11-21T02:46:04;8.10;99.90
66013;DHT22;52783;50.502;8.190;2023-11-21T02:48:30;8.10;99.90
66013;DHT22;52783;50.502;8.190;2023-11-21T02:50:56;8.10;99.90
66013;DHT22;52783;50.502;8.190;2023-11-21T02:53:21;8.10;99.90
66013;DHT22;52783;50.502;8.190;2023-11-21T02:55:47;8.20;99.90
66013;DHT22;52783;50.502;8.190;2023-11-21T02:58:12;8.10;99.90
66013;DHT22;52783;50.502;8.190;2023-11-21T03:00:38;8.10;99.90
66013;DHT22;52783;50.502;8.190;2023-11-21T03:03:07;8.00;99.90
66013;DHT22;52783;50.502;8.190;2023-11-21T03:05:32;8.00;99.90
66013;DHT22;52783;50.502;8.190;2023-11-21T03:08:00;7.90;99.90
66013;DHT22;52783;50.502;8.190;2023-11-21T03:10:26;7.90;99.90
66013;DHT22;52783;50.502;8.190;2023-11-21T03:12:52;7.90;99.90
66013;DHT22;52783;50.502;8.190;2023-11-21T03:15:18;7.90;99.90
66013;DHT22;52783;50.502;8.190;2023-11-21T03:17:44;7.90;99.90
66013;DHT22;52783;50.502;8.190;2023-11-21T03:20:09;7.90;99.90
66013;DHT22;52783;50.502;8.190;2023-11-21T03:22:36;7.90;99.90
66013;DHT22;52783;50.502;8.190;2023-11-21T03:25:03;7.90;99.90
66013;DHT22;52783;50.502;8.190;2023-11-21T03:27:30;7.90;99.90
66013;DHT22;52783;50.502;8.190;2023-11-21T03:29:55;7.90;99.90
66013;DHT22;52783;50.502;8.190;2023-11-21T03:32:21;7.90;99.90
66013;DHT22;52783;50.502;8.190;2023-11-21T03:34:54;8.00;99.90
66013;DHT22;52783;50.502;8.190;2023-11-21T03:37:23;8.00;99.90
66013;DHT22;52783;50.502;8.190;2023-11-21T03:39:50;8.00;99.90
66013;DHT22;52783;50.502;8.190;2023-11-21T03:42:16;8.00;99.90
66013;DHT22;52783;50.502;8.190;2023-11-21T03:44:41;8.00;99.90
66013;DHT22;52783;50.502;8.190;2023-11-21T03:47:07;7.90;99.90
66013;DHT22;52783;50.502;8.190;2023-11-21T03:49:32;7.90;99.90
66013;DHT22;52783;50.502;8.190;2023-11-21T03:51:58;8.00;99.90
66013;DHT22;52783;50.502;8.190;2023-11-21T03:54:24;7.90;99.90
66013;DHT22;52783;50.502;8.190;2023-11-21T03:56:49;7.90;99.90
66013;DHT22;52783;50.502;8.190;2023-11-21T03:59:15;7.90;99.90
66013;DHT22;52783;50.502;8.190;2023-11-21T04:01:41;7.90;99.90
66013;DHT22;52783;50.502;8.190;2023-11-21T04:04:06;7.80;99.90
66013;DHT22;52783;50.502;8.190;2023-11-21T04:06:32;7.80;99.90
66013;DHT22;52783;50.502;8.190;2023-11-21T04:08:58;7.80;99.90
66013;DHT22;52783;50.502;8.190;2023-11-21T04:11:24;7.70;99.90
66013;DHT22;52783;50.502;8.190;2023-11-21T04:13:49;7.70;99.90
66013;DHT22;52783;50.502;8.190;2023-11-21T04:16:15;7.70;99.90
66013;DHT22;52783;50.502;8.190;2023-11-21T04:18:41;7.70;99.90
66013;DHT22;52783;50.502;8.190;2023-11-21T04:21:07;7.70;99.90
66013;DHT22;52783;50.502;8.190;2023-11-21T04:23:33;7.70;99.90
66013;DHT22;52783;50.502;8.190;2023-11-21T04:25:59;7.70;99.90
66013;DHT22;52783;50.502;8.190;2023-11-21T04:28:24;7.80;99.90
66013;DHT22;52783;50.502;8.190;2023-11-21T04:30:50;7.90;99.90
66013;DHT22;52783;50.502;8.190;2023-11-21T04:33:16;7.90;99.90
66013;DHT22;52783;50.502;8.190;2023-11-21T04:35:42;7.90;99.90
66013;DHT22;52783;50.502;8.190;2023-11-21T04:38:07;7.90;99.90
66013;DHT22;52783;50.502;8.190;2023-11-21T04:40:33;7.90;99.90
66013;DHT22;52783;50.502;8.190;2023-11-21T04:42:58;7.90;99.90
66013;DHT22;52783;50.502;8.190;2023-11-21T04:45:24;7.80;99.90
66013;DHT22;52783;50.502;8.190;2023-11-21T04:47:50;7.80;99.90
66013;DHT22;52783;50.502;8.190;2023-11-21T04:50:15;7.90;99.90
66013;DHT22;52783;50.502;8.190;2023-11-21T04:52:41;7.80;99.90
66013;DHT22;52783;50.502;8.190;2023-11-21T04:55:07;7.80;99.90
66013;DHT22;52783;50.502;8.190;2023-11-21T04:57:36;7.80;99.90
66013;DHT22;52783;50.502;8.190;2023-11-21T05:00:01;7.80;99.90
66013;DHT22;52783;50.502;8.190;2023-11-21T05:02:27;7.90;99.90
66013;DHT22;52783;50.502;8.190;2023-11-21T05:04:52;7.90;99.90
66013;DHT22;52783;50.502;8.190;2023-11-21T05:07:18;7.90;99.90
66013;DHT22;52783;50.502;8.190;2023-11-21T05:09:44;7.90;99.90
66013;DHT22;52783;50.502;8.190;2023-11-21T05:12:14;7.90;99.90
66013;DHT22;52783;50.502;8.190;2023-11-21T05:14:40;7.90;99.90
66013;DHT22;52783;50.502;8.190;2023-11-21T05:17:05;7.90;99.90
66013;DHT22;52783;50.502;8.190;2023-11-21T05:19:31;8.00;99.90
66013;DHT22;52783;50.502;8.190;2023-11-21T05:21:58;8.00;99.90
66013;DHT22;52783;50.502;8.190;2023-11-21T05:24:26;8.10;99.90
66013;DHT22;52783;50.502;8.190;2023-11-21T05:26:51;8.10;99.90
66013;DHT22;52783;50.502;8.190;2023-11-21T05:29:18;8.10;99.90
66013;DHT22;52783;50.502;8.190;2023-11-21T05:31:43;8.10;99.90
66013;DHT22;52783;50.502;8.190;2023-11-21T05:34:09;8.10;99.90
66013;DHT22;52783;50.502;8.190;2023-11-21T05:36:34;8.10;99.90
66013;DHT22;52783;50.502;8.190;2023-11-21T05:39:00;8.10;99.90
66013;DHT22;52783;50.502;8.190;2023-11-21T05:41:25;8.10;99.90
66013;DHT22;52783;50.502;8.190;2023-11-21T05:43:51;8.10;99.90
66013;DHT22;52783;50.502;8.190;2023-11-21T05:46:16;8.00;99.90
66013;DHT22;52783;50.502;8.190;2023-11-21T05:48:42;8.00;99.90
66013;DHT22;52783;50.502;8.190;2023-11-21T05:51:07;8.10;99.90
66013;DHT22;52783;50.502;8.190;2023-11-21T05:53:34;8.00;99.90
66013;DHT22;52783;50.502;8.190;2023-11-21T05:56:00;8.10;99.90
66013;DHT22;52783;50.502;8.190;2023-11-21T05:58:25;8.10;99.90
66013;DHT22;52783;50.502;8.190;2023-11-21T06:00:51;8.10;99.90
66013;DHT22;52783;50.502;8.190;2023-11-21T06:03:16;8.00;99.90
66013;DHT22;52783;50.502;8.190;2023-11-21T06:05:42;8.10;99.90
66013;DHT22;52783;50.502;8.190;2023-11-21T06:08:09;8.00;99.90
66013;DHT22;52783;50.502;8.190;2023-11-21T06:10:34;8.00;99.90
66013;DHT22;52783;50.502;8.190;2023-11-21T06:13:00;8.10;99.90
66013;DHT22;52783;50.502;8.190;2023-11-21T06:15:25;8.10;99.90
66013;DHT22;52783;50.502;8.190;2023-11-21T06:17:51;8.00;99.90
66013;DHT22;52783;50.502;8.190;2023-11-21T06:22:49;8.00;99.90
66013;DHT22;52783;50.502;8.190;2023-11-21T06:25:15;8.10;99.90
66013;DHT22;52783;50.502;8.190;2023-11-21T06:27:45;8.10;99.90
66013;DHT22;52783;50.502;8.190;2023-11-21T06:30:12;8.10;99.90
66013;DHT22;52783;50.502;8.190;2023-11-21T06:32:39;8.10;99.90
66013;DHT22;52783;50.502;8.190;2023-11-21T06:35:11;8.00;99.90
66013;DHT22;52783;50.502;8.190;2023-11-21T06:37:37;8.00;99.90
66013;DHT22;52783;50.502;8.190;2023-11-21T06:40:03;8.00;99.90
66013;DHT22;52783;50.502;8.190;2023-11-21T06:42:31;8.10;99.90
66013;DHT22;52783;50.502;8.190;2023-11-21T06:44:58;8.00;99.90
66013;DHT22;52783;50.502;8.190;2023-11-21T06:47:25;8.10;99.90
66013;DHT22;52783;50.502;8.190;2023-11-21T06:49:52;8.10;99.90
66013;DHT22;52783;50.502;8.190;2023-11-21T06:52:18;8.10;99.90
66013;DHT22;52783;50.502;8.190;2023-11-21T06:54:44;8.10;99.90
66013;DHT22;52783;50.502;8.190;2023-11-21T06:57:10;8.10;99.90
66013;DHT22;52783;50.502;8.190;2023-11-21T06:59:36;8.10;99.90
66013;DHT22;52783;50.502;8.190;2023-11-21T07:02:01;8.10;99.90
66013;DHT22;52783;50.502;8.190;2023-11-21T07:04:27;8.10;99.90
66013;DHT22;52783;50.502;8.190;2023-11-21T07:06:53;8.10;99.90
66013;DHT22;52783;50.502;8.190;2023-11-21T07:09:19;8.00;99.90
66013;DHT22;52783;50.502;8.190;2023-11-21T07:11:48;8.00;99.90
66013;DHT22;52783;50.502;8.190;2023-11-21T07:14:14;8.00;99.90
66013;DHT22;52783;50.502;8.190;2023-11-21T07:16:39;7.90;99.90
66013;DHT22;52783;50.502;8.190;2023-11-21T07:19:06;7.90;99.90
66013;DHT22;52783;50.502;8.190;2023-11-21T07:21:33;7.90;99.90
66013;DHT22;52783;50.502;8.190;2023-11-21T07:24:02;7.90;99.90
66013;DHT22;52783;50.502;8.190;2023-11-21T07:26:28;7.90;99.90
66013;DHT22;52783;50.502;8.190;2023-11-21T07:28:54;7.90;99.90
66013;DHT22;52783;50.502;8.190;2023-11-21T07:31:20;7.90;99.90
66013;DHT22;52783;50.502;8.190;2023-11-21T07:33:46;7.90;99.90
66013;DHT22;52783;50.502;8.190;2023-11-21T07:36:15;7.90;99.90
66013;DHT22;52783;50.502;8.190;2023-11-21T07:38:43;8.00;99.90
66013;DHT22;52783;50.502;8.190;2023-11-21T07:41:09;8.00;99.90
66013;DHT22;52783;50.502;8.190;2023-11-21T07:43:35;8.00;99.90
66013;DHT22;52783;50.502;8.190;2023-11-21T07:46:02;8.00;99.90
66013;DHT22;52783;50.502;8.190;2023-11-21T07:48:31;8.00;99.90
66013;DHT22;52783;50.502;8.190;2023-11-21T07:50:57;8.10;99.90
66013;DHT22;52783;50.502;8.190;2023-11-21T07:53:26;8.10;99.90
66013;DHT22;52783;50.502;8.190;2023-11-21T07:55:54;8.20;99.90
66013;DHT22;52783;50.502;8.190;2023-11-21T07:58:20;8.20;99.90
66013;DHT22;52783;50.502;8.190;2023-11-21T08:00:46;8.30;99.90
66013;DHT22;52783;50.502;8.190;2023-11-21T08:03:13;8.30;99.90
66013;DHT22;52783;50.502;8.190;2023-11-21T08:05:39;8.30;99.90
66013;DHT22;52783;50.502;8.190;2023-11-21T08:08:06;8.30;99.90
66013;DHT22;52783;50.502;8.190;2023-11-21T08:10:31;8.30;99.90
66013;DHT22;52783;50.502;8.190;2023-11-21T08:12:57;8.30;99.90
66013;DHT22;52783;50.502;8.190;2023-11-21T08:15:22;8.30;99.90
66013;DHT22;52783;50.502;8.190;2023-11-21T08:17:48;8.40;99.90
66013;DHT22;52783;50.502;8.190;2023-11-21T08:20:14;8.40;99.90
66013;DHT22;52783;50.502;8.190;2023-11-21T08:22:42;8.50;99.90
66013;DHT22;52783;50.502;8.190;2023-11-21T08:25:07;8.60;99.90
66013;DHT22;52783;50.502;8.190;2023-11-21T08:27:33;8.50;99.90
66013;DHT22;52783;50.502;8.190;2023-11-21T08:30:00;8.50;99.90
66013;DHT22;52783;50.502;8.190;2023-11-21T08:32:25;8.60;99.90
66013;DHT22;52783;50.502;8.190;2023-11-21T08:34:51;8.70;99.90
66013;DHT22;52783;50.502;8.190;2023-11-21T08:37:17;8.70;99.90
66013;DHT22;52783;50.502;8.190;2023-11-21T08:39:47;8.80;99.90
66013;DHT22;52783;50.502;8.190;2023-11-21T08:42:13;8.90;99.90
66013;DHT22;52783;50.502;8.190;2023-11-21T08:44:39;9.00;99.90
66013;DHT22;52783;50.502;8.190;2023-11-21T08:47:05;9.10;99.90
66013;DHT22;52783;50.502;8.190;2023-11-21T08:49:31;9.10;99.90
66013;DHT22;52783;50.502;8.190;2023-11-21T08:51:56;9.20;99.90
66013;DHT22;52783;50.502;8.190;2023-11-21T08:54:25;9.30;99.90
66013;DHT22;52783;50.502;8.190;2023-11-21T08:56:51;9.30;99.90
66013;DHT22;52783;50.502;8.190;2023-11-21T08:59:17;9.40;99.90
66013;DHT22;52783;50.502;8.190;2023-11-21T09:01:42;9.40;99.90
66013;DHT22;52783;50.502;8.190;2023-11-21T09:04:08;9.40;99.90
66013;DHT22;52783;50.502;8.190;2023-11-21T09:06:33;9.40;99.90
66013;DHT22;52783;50.502;8.190;2023-11-21T09:08:59;9.50;99.90
66013;DHT22;52783;50.502;8.190;2023-11-21T09:11:24;9.50;99.90
66013;DHT22;52783;50.502;8.190;2023-11-21T09:13:52;9.60;99.90
66013;DHT22;52783;50.502;8.190;2023-11-21T09:16:18;9.60;99.90
66013;DHT22;52783;50.502;8.190;2023-11-21T09:18:45;9.50;99.90
66013;DHT22;52783;50.502;8.190;2023-11-21T09:21:10;9.40;99.90
66013;DHT22;52783;50.502;8.190;2023-11-21T09:23:36;9.50;99.90
66013;DHT22;52783;50.502;8.190;2023-11-21T09:26:01;9.60;99.90
66013;DHT22;52783;50.502;8.190;2023-11-21T09:28:27;9.70;99.90
66013;DHT22;52783;50.502;8.190;2023-11-21T09:30:53;9.80;99.90
66013;DHT22;52783;50.502;8.190;2023-11-21T09:33:19;9.90;99.90
66013;DHT22;52783;50.502;8.190;2023-11-21T09:35:46;10.00;99.90
66013;DHT22;52783;50.502;8.190;2023-11-21T09:38:11;10.00;99.90
66013;DHT22;52783;50.502;8.190;2023-11-21T09:40:37;10.20;99.90
66013;DHT22;52783;50.502;8.190;2023-11-21T09:43:14;10.10;99.90
66013;DHT22;52783;50.502;8.190;2023-11-21T09:45:48;10.30;99.90
66013;DHT22;52783;50.502;8.190;2023-11-21T09:48:16;10.40;99.90
66013;DHT22;52783;50.502;8.190;2023-11-21T09:50:43;10.40;99.90
66013;DHT22;52783;50.502;8.190;2023-11-21T09:53:19;10.40;99.90
66013;DHT22;52783;50.502;8.190;2023-11-21T09:55:52;10.30;99.90
66013;DHT22;52783;50.502;8.190;2023-11-21T09:58:19;10.50;99.90
66013;DHT22;52783;50.502;8.190;2023-11-21T10:00:46;10.50;99.90
66013;DHT22;52783;50.502;8.190;2023-11-21T10:03:13;10.40;99.90
66013;DHT22;52783;50.502;8.190;2023-11-21T10:05:39;10.40;99.90
66013;DHT22;52783;50.502;8.190;2023-11-21T10:08:08;10.50;99.90
66013;DHT22;52783;50.502;8.190;2023-11-21T10:10:36;10.40;99.90
66013;DHT22;52783;50.502;8.190;2023-11-21T10:13:03;10.50;99.90
66013;DHT22;52783;50.502;8.190;2023-11-21T10:15:34;10.60;99.90
66013;DHT22;52783;50.502;8.190;2023-11-21T10:18:05;10.50;99.90
66013;DHT22;52783;50.502;8.190;2023-11-21T10:20:32;10.30;99.90
66013;DHT22;52783;50.502;8.190;2023-11-21T10:23:03;10.50;99.90
66013;DHT22;52783;50.502;8.190;2023-11-21T10:25:30;10.40;99.90
66013;DHT22;52783;50.502;8.190;2023-11-21T10:28:00;10.50;99.90
66013;DHT22;52783;50.502;8.190;2023-11-21T10:30:34;10.50;99.90
66013;DHT22;52783;50.502;8.190;2023-11-21T10:33:02;10.50;99.90
66013;DHT22;52783;50.502;8.190;2023-11-21T10:35:44;10.50;99.90
66013;DHT22;52783;50.502;8.190;2023-11-21T10:38:16;10.60;99.90
66013;DHT22;52783;50.502;8.190;2023-11-21T10:40:43;10.50;99.90
66013;DHT22;52783;50.502;8.190;2023-11-21T10:43:10;10.60;99.90
66013;DHT22;52783;50.502;8.190;2023-11-21T10:45:37;10.70;99.90
66013;DHT22;52783;50.502;8.190;2023-11-21T10:48:14;10.80;99.90
66013;DHT22;52783;50.502;8.190;2023-11-21T10:50:45;10.80;99.90
66013;DHT22;52783;50.502;8.190;2023-11-21T10:53:11;10.80;99.90
66013;DHT22;52783;50.502;8.190;2023-11-21T10:55:39;11.00;99.90
66013;DHT22;52783;50.502;8.190;2023-11-21T10:58:05;11.10;99.90
66013;DHT22;52783;50.502;8.190;2023-11-21T11:00:33;11.10;99.90
66013;DHT22;52783;50.502;8.190;2023-11-21T11:02:59;11.20;99.90
66013;DHT22;52783;50.502;8.190;2023-11-21T11:05:27;10.90;99.90
66013;DHT22;52783;50.502;8.190;2023-11-21T11:08:08;11.20;99.90
66013;DHT22;52783;50.502;8.190;2023-11-21T11:10:34;11.30;99.90
66013;DHT22;52783;50.502;8.190;2023-11-21T11:13:00;11.20;99.90
66013;DHT22;52783;50.502;8.190;2023-11-21T11:15:27;11.20;99.90
66013;DHT22;52783;50.502;8.190;2023-11-21T11:17:53;11.40;99.90
66013;DHT22;52783;50.502;8.190;2023-11-21T11:20:23;11.10;99.90
66013;DHT22;52783;50.502;8.190;2023-11-21T11:28:34;11.00;99.90
66013;DHT22;52783;50.502;8.190;2023-11-21T11:31:10;10.80;99.90
66013;DHT22;52783;50.502;8.190;2023-11-21T11:33:57;10.70;99.90
66013;DHT22;52783;50.502;8.190;2023-11-21T11:36:37;10.60;99.90
66013;DHT22;52783;50.502;8.190;2023-11-21T11:39:35;10.40;99.90
66013;DHT22;52783;50.502;8.190;2023-11-21T11:42:03;10.50;99.90
66013;DHT22;52783;50.502;8.190;2023-11-21T11:47:16;10.30;99.90
66013;DHT22;52783;50.502;8.190;2023-11-21T11:50:14;10.30;99.90
66013;DHT22;52783;50.502;8.190;2023-11-21T11:52:45;10.20;99.90
66013;DHT22;52783;50.502;8.190;2023-11-21T11:55:13;10.40;99.90
66013;DHT22;52783;50.502;8.190;2023-11-21T11:57:40;10.50;99.90
66013;DHT22;52783;50.502;8.190;2023-11-21T12:00:19;10.40;99.90
66013;DHT22;52783;50.502;8.190;2023-11-21T12:02:48;10.40;99.90
66013;DHT22;52783;50.502;8.190;2023-11-21T12:05:16;10.40;99.90
66013;DHT22;52783;50.502;8.190;2023-11-21T12:07:49;10.70;99.90
66013;DHT22;52783;50.502;8.190;2023-11-21T12:10:17;10.90;99.90
66013;DHT22;52783;50.502;8.190;2023-11-21T12:12:50;10.90;99.90
66013;DHT22;52783;50.502;8.190;2023-11-21T12:15:18;10.90;99.90
66013;DHT22;52783;50.502;8.190;2023-11-21T12:17:44;11.20;99.90
66013;DHT22;52783;50.502;8.190;2023-11-21T12:20:11;11.30;99.90
66013;DHT22;52783;50.502;8.190;2023-11-21T12:22:44;11.00;99.90
66013;DHT22;52783;50.502;8.190;2023-11-21T12:25:10;10.80;99.90
66013;DHT22;52783;50.502;8.190;2023-11-21T12:27:35;10.70;99.90
66013;DHT22;52783;50.502;8.190;2023-11-21T12:30:01;10.70;99.90
66013;DHT22;52783;50.502;8.190;2023-11-21T12:32:26;10.70;99.90
66013;DHT22;52783;50.502;8.190;2023-11-21T12:34:52;10.70;99.90
66013;DHT22;52783;50.502;8.190;2023-11-21T12:37:18;10.60;99.90
66013;DHT22;52783;50.502;8.190;2023-11-21T12:39:43;10.60;99.90
66013;DHT22;52783;50.502;8.190;2023-11-21T12:42:09;10.70;99.90
66013;DHT22;52783;50.502;8.190;2023-11-21T12:44:35;10.80;99.90
66013;DHT22;52783;50.502;8.190;2023-11-21T12:47:02;10.70;99.90
66013;DHT22;52783;50.502;8.190;2023-11-21T12:49:28;10.50;99.90
66013;DHT22;52783;50.502;8.190;2023-11-21T12:51:54;10.60;99.90
66013;DHT22;52783;50.502;8.190;2023-11-21T12:54:20;10.60;99.90
66013;DHT22;52783;50.502;8.190;2023-11-21T12:56:46;10.60;99.90
66013;DHT22;52783;50.502;8.190;2023-11-21T12:59:14;10.30;99.90
66013;DHT22;52783;50.502;8.190;2023-11-21T13:01:42;10.20;99.90
66013;DHT22;52783;50.502;8.190;2023-11-21T13:04:08;10.10;99.90
66013;DHT22;52783;50.502;8.190;2023-11-21T13:06:36;10.10;99.90
66013;DHT22;52783;50.502;8.190;2023-11-21T13:09:09;10.10;99.90
66013;DHT22;52783;50.502;8.190;2023-11-21T13:11:43;10.10;99.90
66013;DHT22;52783;50.502;8.190;2023-11-21T13:14:10;10.10;99.90
66013;DHT22;52783;50.502;8.190;2023-11-21T13:16:36;10.20;99.90
66013;DHT22;52783;50.502;8.190;2023-11-21T13:19:03;10.20;99.90
66013;DHT22;52783;50.502;8.190;2023-11-21T13:21:28;10.10;99.90
66013;DHT22;52783;50.502;8.190;2023-11-21T13:23:54;10.00;99.90
66013;DHT22;52783;50.502;8.190;2023-11-21T13:26:21;10.00;99.90
66013;DHT22;52783;50.502;8.190;2023-11-21T13:28:48;9.90;99.90
66013;DHT22;52783;50.502;8.190;2023-11-21T13:31:14;9.90;99.90
66013;DHT22;52783;50.502;8.190;2023-11-21T13:33:52;9.90;99.90
66013;DHT22;52783;50.502;8.190;2023-11-21T13:36:22;9.90;99.90
66013;DHT22;52783;50.502;8.190;2023-11-21T13:38:52;9.90;99.90
66013;DHT22;52783;50.502;8.190;2023-11-21T13:41:20;9.90;99.90
66013;DHT22;52783;50.502;8.190;2023-11-21T13:43:47;9.80;99.90
66013;DHT22;52783;50.502;8.190;2023-11-21T13:46:22;9.90;99.90
66013;DHT22;52783;50.502;8.190;2023-11-21T13:48:49;10.00;99.90
66013;DHT22;52783;50.502;8.190;2023-11-21T13:51:24;10.00;99.90
66013;DHT22;52783;50.502;8.190;2023-11-21T13:54:03;10.00;99.90
66013;DHT22;52783;50.502;8.190;2023-11-21T13:56:34;9.90;99.90
66013;DHT22;52783;50.502;8.190;2023-11-21T13:58:59;10.00;99.90
66013;DHT22;52783;50.502;8.190;2023-11-21T14:01:34;10.00;99.90
66013;DHT22;52783;50.502;8.190;2023-11-21T14:04:18;10.00;99.90
66013;DHT22;52783;50.502;8.190;2023-11-21T14:06:48;10.00;99.90
66013;DHT22;52783;50.502;8.190;2023-11-21T14:09:15;10.00;99.90
66013;DHT22;52783;50.502;8.190;2023-11-21T14:11:51;10.00;99.90
66013;DHT22;52783;50.502;8.190;2023-11-21T14:14:18;9.90;99.90
66013;DHT22;52783;50.502;8.190;2023-11-21T14:16:44;9.80;99.90
66013;DHT22;52783;50.502;8.190;2023-11-21T14:19:10;9.90;99.90
66013;DHT22;52783;50.502;8.190;2023-11-21T14:21:41;9.90;99.90
66013;DHT22;52783;50.502;8.190;2023-11-21T14:24:14;10.00;99.90
66013;DHT22;52783;50.502;8.190;2023-11-21T14:26:43;10.00;99.90
66013;DHT22;52783;50.502;8.190;2023-11-21T14:29:11;10.10;99.90
66013;DHT22;52783;50.502;8.190;2023-11-21T14:31:40;10.10;99.90
66013;DHT22;52783;50.502;8.190;2023-11-21T14:34:06;10.10;99.90
66013;DHT22;52783;50.502;8.190;2023-11-21T14:36:33;10.00;99.90
66013;DHT22;52783;50.502;8.190;2023-11-21T14:38:58;10.10;99.90
66013;DHT22;52783;50.502;8.190;2023-11-21T14:41:24;10.10;99.90
66013;DHT22;52783;50.502;8.190;2023-11-21T14:43:50;10.00;99.90
66013;DHT22;52783;50.502;8.190;2023-11-21T14:46:16;9.90;99.90
66013;DHT22;52783;50.502;8.190;2023-11-21T14:48:45;10.00;99.90
66013;DHT22;52783;50.502;8.190;2023-11-21T14:51:23;10.00;99.90
66013;DHT22;52783;50.502;8.190;2023-11-21T14:53:49;9.90;99.90
66013;DHT22;52783;50.502;8.190;2023-11-21T14:56:22;9.90;99.90
66013;DHT22;52783;50.502;8.190;2023-11-21T14:58:53;9.90;99.90
66013;DHT22;52783;50.502;8.190;2023-11-21T15:01:20;9.90;99.90
66013;DHT22;52783;50.502;8.190;2023-11-21T15:03:56;9.90;99.90
66013;DHT22;52783;50.502;8.190;2023-11-21T15:06:21;9.80;99.90
66013;DHT22;52783;50.502;8.190;2023-11-21T15:08:56;9.70;99.90
66013;DHT22;52783;50.502;8.190;2023-11-21T15:11:44;9.70;99.90
66013;DHT22;52783;50.502;8.190;2023-11-21T15:14:11;9.80;99.90
66013;DHT22;52783;50.502;8.190;2023-11-21T15:16:41;9.70;99.90
66013;DHT22;52783;50.502;8.190;2023-11-21T15:19:11;9.70;99.90
66013;DHT22;52783;50.502;8.190;2023-11-21T15:21:37;9.60;99.90
66013;DHT22;52783;50.502;8.190;2023-11-21T15:24:03;9.60;99.90
66013;DHT22;52783;50.502;8.190;2023-11-21T15:26:29;9.60;99.90
66013;DHT22;52783;50.502;8.190;2023-11-21T15:28:55;9.60;99.90
66013;DHT22;52783;50.502;8.190;2023-11-21T15:31:21;9.70;99.90
66013;DHT22;52783;50.502;8.190;2023-11-21T15:33:51;9.70;99.90
66013;DHT22;52783;50.502;8.190;2023-11-21T15:36:18;9.70;99.90
66013;DHT22;52783;50.502;8.190;2023-11-21T15:38:44;9.70;99.90
66013;DHT22;52783;50.502;8.190;2023-11-21T15:41:10;9.70;99.90
66013;DHT22;52783;50.502;8.190;2023-11-21T15:43:37;9.60;99.90
66013;DHT22;52783;50.502;8.190;2023-11-21T15:46:02;9.60;99.90
66013;DHT22;52783;50.502;8.190;2023-11-21T15:48:35;9.60;99.90
66013;DHT22;52783;50.502;8.190;2023-11-21T15:51:04;9.50;99.90
66013;DHT22;52783;50.502;8.190;2023-11-21T15:53:30;9.50;99.90